AAL3154 KDFW-KCMH
Flight info
| Callsign | AAL3154 |
|---|---|
| Flight time | 1h 48m |
| Altitude | 37000 |
| Route | AKUNA9 MLC ZALDA PROWL PXV JUDDI JAKTZ2 |
| Aircraft | B738/M-SDE2E3FGHIRWXY/LB1 |
Departure
| Time | 2026-05-08 23:11 |
|---|---|
| Airport | Dallas Fort Worth International Airport (KDFW) |
Arrival
| Time | 2026-05-09 00:59 |
|---|---|
| Airport | John Glenn Columbus International Airport (KCMH) |
| Time | Latitude | Longitude | Altitude | Speed | Heading |
|---|---|---|---|---|---|
| 2026-05-08 22:14 | 32.89663 | -97.04571 | 597 ft | 0 kts | 90° |
| 2026-05-08 23:00 | 32.89663 | -97.04591 | 597 ft | 3 kts | 90° |
| 2026-05-08 23:00 | 32.89663 | -97.04618 | 597 ft | 3 kts | 90° |
| 2026-05-08 23:00 | 32.89663 | -97.04640 | 597 ft | 3 kts | 88° |
| 2026-05-08 23:00 | 32.89659 | -97.04661 | 597 ft | 3 kts | 32° |
| 2026-05-08 23:01 | 32.89640 | -97.04667 | 597 ft | 3 kts | 0° |
| 2026-05-08 23:01 | 32.89620 | -97.04667 | 597 ft | 0 kts | 0° |
| 2026-05-08 23:03 | 32.89635 | -97.04667 | 597 ft | 5 kts | 356° |
| 2026-05-08 23:03 | 32.89687 | -97.04700 | 594 ft | 12 kts | 326° |
| 2026-05-08 23:03 | 32.89776 | -97.04762 | 596 ft | 17 kts | 349° |
| 2026-05-08 23:04 | 32.89908 | -97.04763 | 597 ft | 20 kts | 0° |
| 2026-05-08 23:04 | 32.90042 | -97.04764 | 598 ft | 19 kts | 359° |
| 2026-05-08 23:04 | 32.90186 | -97.04762 | 596 ft | 22 kts | 0° |
| 2026-05-08 23:04 | 32.90345 | -97.04762 | 596 ft | 23 kts | 0° |
| 2026-05-08 23:05 | 32.90512 | -97.04760 | 596 ft | 25 kts | 360° |
| 2026-05-08 23:05 | 32.90678 | -97.04761 | 596 ft | 23 kts | 360° |
| 2026-05-08 23:05 | 32.90836 | -97.04760 | 598 ft | 22 kts | 0° |
| 2026-05-08 23:05 | 32.90979 | -97.04758 | 616 ft | 16 kts | 8° |
| 2026-05-08 23:06 | 32.91012 | -97.04648 | 601 ft | 16 kts | 90° |
| 2026-05-08 23:06 | 32.91011 | -97.04491 | 598 ft | 21 kts | 90° |
| 2026-05-08 23:06 | 32.91010 | -97.04322 | 619 ft | 20 kts | 90° |
| 2026-05-08 23:06 | 32.91010 | -97.04149 | 616 ft | 23 kts | 90° |
| 2026-05-08 23:07 | 32.91010 | -97.03961 | 611 ft | 22 kts | 90° |
| 2026-05-08 23:07 | 32.91007 | -97.03775 | 601 ft | 24 kts | 90° |
| 2026-05-08 23:07 | 32.91007 | -97.03554 | 583 ft | 26 kts | 90° |
| 2026-05-08 23:07 | 32.91007 | -97.03361 | 582 ft | 17 kts | 91° |
| 2026-05-08 23:08 | 32.91028 | -97.03278 | 579 ft | 9 kts | 21° |
| 2026-05-08 23:08 | 32.91122 | -97.03274 | 579 ft | 17 kts | 1° |
| 2026-05-08 23:08 | 32.91240 | -97.03273 | 581 ft | 17 kts | 0° |
| 2026-05-08 23:08 | 32.91354 | -97.03273 | 579 ft | 16 kts | 360° |
| 2026-05-08 23:09 | 32.91465 | -97.03272 | 576 ft | 13 kts | 11° |
| 2026-05-08 23:09 | 32.91486 | -97.03206 | 575 ft | 9 kts | 89° |
| 2026-05-08 23:09 | 32.91487 | -97.03133 | 579 ft | 9 kts | 90° |
| 2026-05-08 23:09 | 32.91487 | -97.03055 | 579 ft | 12 kts | 90° |
| 2026-05-08 23:10 | 32.91452 | -97.02988 | 577 ft | 12 kts | 177° |
| 2026-05-08 23:10 | 32.91225 | -97.02990 | 575 ft | 66 kts | 180° |
| 2026-05-08 23:10 | 32.90532 | -97.02994 | 574 ft | 131 kts | 180° |
| 2026-05-08 23:10 | 32.89461 | -97.02995 | 761 ft | 166 kts | 179° |
| 2026-05-08 23:11 | 32.88285 | -97.02986 | 1485 ft | 173 kts | 180° |
| 2026-05-08 23:11 | 32.87049 | -97.02956 | 2110 ft | 186 kts | 178° |
| 2026-05-08 23:11 | 32.85668 | -97.02921 | 2346 ft | 211 kts | 177° |
| 2026-05-08 23:11 | 32.84225 | -97.02488 | 2692 ft | 227 kts | 157° |
| 2026-05-08 23:12 | 32.82702 | -97.01707 | 3038 ft | 245 kts | 158° |
| 2026-05-08 23:12 | 32.81119 | -97.00920 | 3791 ft | 248 kts | 160° |
| 2026-05-08 23:12 | 32.79576 | -96.99930 | 4470 ft | 259 kts | 141° |
| 2026-05-08 23:12 | 32.78253 | -96.98411 | 5140 ft | 267 kts | 139° |
| 2026-05-08 23:13 | 32.77097 | -96.96661 | 5828 ft | 276 kts | 115° |
| 2026-05-08 23:13 | 32.76448 | -96.94483 | 6470 ft | 284 kts | 107° |
| 2026-05-08 23:13 | 32.76328 | -96.92099 | 7022 ft | 299 kts | 84° |
| 2026-05-08 23:13 | 32.76539 | -96.89589 | 7695 ft | 310 kts | 86° |
| 2026-05-08 23:14 | 32.76674 | -96.87613 | 8236 ft | 314 kts | 84° |
| 2026-05-08 23:14 | 32.77038 | -96.85745 | 8698 ft | 318 kts | 64° |
| 2026-05-08 23:14 | 32.78272 | -96.83675 | 9323 ft | 317 kts | 36° |
| 2026-05-08 23:14 | 32.80128 | -96.82341 | 9950 ft | 310 kts | 12° |
| 2026-05-08 23:15 | 32.82219 | -96.81737 | 10401 ft | 318 kts | 5° |
| 2026-05-08 23:15 | 32.84477 | -96.81214 | 10554 ft | 340 kts | 5° |
| 2026-05-08 23:15 | 32.86855 | -96.80781 | 10901 ft | 349 kts | 357° |
| 2026-05-08 23:15 | 32.89284 | -96.80755 | 11509 ft | 350 kts | 353° |
| 2026-05-08 23:16 | 32.91723 | -96.80839 | 12185 ft | 353 kts | 353° |
| 2026-05-08 23:16 | 32.94189 | -96.80893 | 12862 ft | 357 kts | 354° |
| 2026-05-08 23:16 | 32.96685 | -96.80911 | 13551 ft | 361 kts | 354° |
| 2026-05-08 23:16 | 32.99215 | -96.80679 | 14220 ft | 372 kts | 9° |
| 2026-05-08 23:17 | 33.01646 | -96.79515 | 14959 ft | 379 kts | 19° |
| 2026-05-08 23:17 | 33.04048 | -96.78191 | 15654 ft | 382 kts | 20° |
| 2026-05-08 23:17 | 33.06471 | -96.76851 | 16315 ft | 385 kts | 20° |
| 2026-05-08 23:17 | 33.08890 | -96.75517 | 16992 ft | 388 kts | 19° |
| 2026-05-08 23:18 | 33.11353 | -96.74167 | 17662 ft | 391 kts | 19° |
| 2026-05-08 23:18 | 33.13835 | -96.72812 | 18318 ft | 393 kts | 19° |
| 2026-05-08 23:18 | 33.16332 | -96.71455 | 18887 ft | 396 kts | 19° |
| 2026-05-08 23:18 | 33.18853 | -96.70086 | 19464 ft | 399 kts | 19° |
| 2026-05-08 23:19 | 33.21391 | -96.68711 | 20048 ft | 402 kts | 19° |
| 2026-05-08 23:19 | 33.23943 | -96.67328 | 20621 ft | 404 kts | 19° |
| 2026-05-08 23:19 | 33.26512 | -96.65935 | 21177 ft | 407 kts | 19° |
| 2026-05-08 23:19 | 33.29103 | -96.64530 | 21716 ft | 410 kts | 19° |
| 2026-05-08 23:20 | 33.31711 | -96.63114 | 22244 ft | 413 kts | 19° |
| 2026-05-08 23:20 | 33.34335 | -96.61689 | 22776 ft | 416 kts | 19° |
| 2026-05-08 23:20 | 33.36980 | -96.60252 | 23288 ft | 419 kts | 19° |
| 2026-05-08 23:20 | 33.39643 | -96.58804 | 23732 ft | 422 kts | 19° |
| 2026-05-08 23:21 | 33.42327 | -96.57344 | 24105 ft | 426 kts | 19° |
| 2026-05-08 23:21 | 33.45041 | -96.55867 | 24469 ft | 430 kts | 19° |
| 2026-05-08 23:21 | 33.47778 | -96.54376 | 24839 ft | 434 kts | 19° |
| 2026-05-08 23:21 | 33.50544 | -96.52867 | 25228 ft | 438 kts | 19° |
| 2026-05-08 23:22 | 33.53305 | -96.51358 | 25868 ft | 434 kts | 19° |
| 2026-05-08 23:22 | 33.56055 | -96.49855 | 26285 ft | 437 kts | 19° |
| 2026-05-08 23:22 | 33.58847 | -96.48332 | 26515 ft | 444 kts | 19° |
| 2026-05-08 23:22 | 33.61675 | -96.46788 | 26810 ft | 449 kts | 19° |
| 2026-05-08 23:23 | 33.64524 | -96.45228 | 27110 ft | 454 kts | 18° |
| 2026-05-08 23:23 | 33.67421 | -96.43643 | 27322 ft | 460 kts | 18° |
| 2026-05-08 23:23 | 33.70341 | -96.42043 | 27679 ft | 463 kts | 18° |
| 2026-05-08 23:23 | 33.73275 | -96.40432 | 28056 ft | 465 kts | 18° |
| 2026-05-08 23:24 | 33.76188 | -96.38832 | 28389 ft | 468 kts | 18° |
| 2026-05-08 23:24 | 33.79206 | -96.37173 | 28737 ft | 472 kts | 18° |
| 2026-05-08 23:24 | 33.82173 | -96.35539 | 29289 ft | 469 kts | 18° |
| 2026-05-08 23:24 | 33.85110 | -96.33920 | 29656 ft | 471 kts | 18° |
| 2026-05-08 23:25 | 33.88100 | -96.32275 | 29853 ft | 476 kts | 18° |
| 2026-05-08 23:25 | 33.91128 | -96.30608 | 30079 ft | 480 kts | 18° |
| 2026-05-08 23:25 | 33.94171 | -96.28932 | 30316 ft | 482 kts | 18° |
| 2026-05-08 23:25 | 33.97230 | -96.27243 | 30565 ft | 485 kts | 18° |
| 2026-05-08 23:26 | 34.00302 | -96.25546 | 30778 ft | 488 kts | 18° |
| 2026-05-08 23:26 | 34.03397 | -96.23835 | 30998 ft | 491 kts | 18° |
| 2026-05-08 23:26 | 34.06511 | -96.22112 | 31241 ft | 493 kts | 18° |
| 2026-05-08 23:26 | 34.09616 | -96.20390 | 31680 ft | 490 kts | 18° |
| 2026-05-08 23:27 | 34.12703 | -96.18675 | 32046 ft | 489 kts | 18° |
| 2026-05-08 23:27 | 34.15794 | -96.16943 | 32268 ft | 493 kts | 20° |
| 2026-05-08 23:27 | 34.18763 | -96.14782 | 32528 ft | 503 kts | 30° |
| 2026-05-08 23:27 | 34.21471 | -96.12076 | 32845 ft | 510 kts | 40° |
| 2026-05-08 23:28 | 34.23105 | -96.10025 | 33062 ft | 512 kts | 42° |
| 2026-05-08 23:28 | 34.25530 | -96.06859 | 33302 ft | 515 kts | 42° |
| 2026-05-08 23:28 | 34.30414 | -96.00415 | 33585 ft | 522 kts | 41° |
| 2026-05-08 23:29 | 34.32864 | -95.97189 | 33915 ft | 521 kts | 42° |
| 2026-05-08 23:29 | 34.35312 | -95.93984 | 34391 ft | 514 kts | 41° |
| 2026-05-08 23:29 | 34.37737 | -95.90823 | 34766 ft | 512 kts | 41° |
| 2026-05-08 23:29 | 34.40173 | -95.87664 | 34868 ft | 516 kts | 41° |
| 2026-05-08 23:30 | 34.45105 | -95.81279 | 35175 ft | 520 kts | 41° |
| 2026-05-08 23:30 | 34.47570 | -95.78082 | 35437 ft | 519 kts | 41° |
| 2026-05-08 23:30 | 34.50035 | -95.74881 | 35644 ft | 520 kts | 41° |
| 2026-05-08 23:31 | 34.52504 | -95.71671 | 35811 ft | 521 kts | 41° |
| 2026-05-08 23:31 | 34.54979 | -95.68448 | 35939 ft | 524 kts | 41° |
| 2026-05-08 23:31 | 34.57474 | -95.65198 | 36047 ft | 527 kts | 41° |
| 2026-05-08 23:31 | 34.59974 | -95.61936 | 36261 ft | 527 kts | 41° |
| 2026-05-08 23:32 | 34.62461 | -95.58685 | 36611 ft | 525 kts | 41° |
| 2026-05-08 23:32 | 34.64937 | -95.55444 | 36861 ft | 524 kts | 41° |
| 2026-05-08 23:32 | 34.69934 | -95.48905 | 36864 ft | 532 kts | 41° |
| 2026-05-08 23:33 | 34.75000 | -95.42264 | 36859 ft | 538 kts | 41° |
| 2026-05-08 23:33 | 34.80094 | -95.35568 | 36859 ft | 541 kts | 41° |
| 2026-05-08 23:34 | 34.85174 | -95.28875 | 36848 ft | 543 kts | 41° |
| 2026-05-08 23:34 | 34.90296 | -95.22114 | 36892 ft | 543 kts | 41° |
| 2026-05-08 23:35 | 34.95368 | -95.15399 | 36849 ft | 533 kts | 41° |
| 2026-05-08 23:35 | 35.00379 | -95.08759 | 36853 ft | 531 kts | 41° |
| 2026-05-08 23:36 | 35.05371 | -95.02138 | 36860 ft | 530 kts | 41° |
| 2026-05-08 23:36 | 35.10367 | -94.95499 | 36857 ft | 531 kts | 41° |
| 2026-05-08 23:37 | 35.15379 | -94.88825 | 36925 ft | 537 kts | 41° |
| 2026-05-08 23:37 | 35.20452 | -94.82057 | 36844 ft | 541 kts | 42° |
| 2026-05-08 23:38 | 35.25529 | -94.75258 | 36845 ft | 540 kts | 42° |
| 2026-05-08 23:38 | 35.30582 | -94.68480 | 36846 ft | 539 kts | 42° |
| 2026-05-08 23:39 | 35.35623 | -94.61708 | 36843 ft | 537 kts | 42° |
| 2026-05-08 23:39 | 35.40651 | -94.54943 | 36834 ft | 536 kts | 42° |
| 2026-05-08 23:40 | 35.45670 | -94.48177 | 36849 ft | 537 kts | 41° |
| 2026-05-08 23:40 | 35.50686 | -94.41401 | 36858 ft | 536 kts | 42° |
| 2026-05-08 23:41 | 35.55693 | -94.34621 | 36851 ft | 536 kts | 42° |
| 2026-05-08 23:41 | 35.60699 | -94.27828 | 36862 ft | 536 kts | 42° |
| 2026-05-08 23:42 | 35.65708 | -94.21017 | 36875 ft | 537 kts | 42° |
| 2026-05-08 23:42 | 35.70716 | -94.14198 | 36902 ft | 538 kts | 42° |
| 2026-05-08 23:43 | 35.75737 | -94.07346 | 36876 ft | 539 kts | 42° |
| 2026-05-08 23:43 | 35.80750 | -94.00487 | 36874 ft | 539 kts | 42° |
| 2026-05-08 23:44 | 35.85760 | -93.93622 | 36873 ft | 539 kts | 42° |
| 2026-05-08 23:44 | 35.90771 | -93.86738 | 36869 ft | 539 kts | 42° |
| 2026-05-08 23:45 | 35.95775 | -93.79851 | 36859 ft | 539 kts | 42° |
| 2026-05-08 23:45 | 36.00781 | -93.72948 | 36873 ft | 540 kts | 42° |
| 2026-05-08 23:46 | 36.05788 | -93.66029 | 36879 ft | 541 kts | 43° |
| 2026-05-08 23:46 | 36.10190 | -93.58414 | 36873 ft | 551 kts | 59° |
| 2026-05-08 23:47 | 36.13638 | -93.49945 | 36874 ft | 552 kts | 61° |
| 2026-05-08 23:47 | 36.17040 | -93.41407 | 36864 ft | 553 kts | 61° |
| 2026-05-08 23:48 | 36.20495 | -93.32901 | 36919 ft | 553 kts | 60° |
| 2026-05-08 23:48 | 36.23994 | -93.24391 | 36877 ft | 555 kts | 60° |
| 2026-05-08 23:49 | 36.27491 | -93.15881 | 36872 ft | 554 kts | 60° |
| 2026-05-08 23:49 | 36.30973 | -93.07372 | 36879 ft | 553 kts | 60° |
| 2026-05-08 23:50 | 36.34439 | -92.98870 | 36867 ft | 552 kts | 60° |
| 2026-05-08 23:50 | 36.37892 | -92.90378 | 36864 ft | 551 kts | 60° |
| 2026-05-08 23:51 | 36.41333 | -92.81889 | 36860 ft | 550 kts | 60° |
| 2026-05-08 23:51 | 36.44767 | -92.73400 | 36857 ft | 550 kts | 60° |
| 2026-05-08 23:52 | 36.48190 | -92.64915 | 36879 ft | 550 kts | 60° |
| 2026-05-08 23:52 | 36.51616 | -92.56400 | 36871 ft | 550 kts | 60° |
| 2026-05-08 23:53 | 36.55010 | -92.47944 | 36854 ft | 551 kts | 60° |
| 2026-05-08 23:53 | 36.58422 | -92.39418 | 36866 ft | 551 kts | 60° |
| 2026-05-08 23:54 | 36.61833 | -92.30869 | 36856 ft | 551 kts | 60° |
| 2026-05-08 23:55 | 36.66944 | -92.18024 | 36871 ft | 553 kts | 60° |
| 2026-05-08 23:55 | 36.70353 | -92.09423 | 36869 ft | 554 kts | 60° |
| 2026-05-08 23:56 | 36.73759 | -92.00809 | 36905 ft | 554 kts | 61° |
| 2026-05-08 23:56 | 36.77155 | -91.92196 | 36880 ft | 553 kts | 61° |
| 2026-05-08 23:57 | 36.80545 | -91.83575 | 36853 ft | 553 kts | 61° |
| 2026-05-08 23:57 | 36.83668 | -91.74813 | 36869 ft | 553 kts | 67° |
| 2026-05-08 23:58 | 36.86275 | -91.65781 | 36857 ft | 553 kts | 69° |
| 2026-05-08 23:58 | 36.88808 | -91.56715 | 36859 ft | 552 kts | 69° |
| 2026-05-08 23:59 | 36.91399 | -91.47687 | 36853 ft | 553 kts | 68° |
| 2026-05-08 23:59 | 36.94037 | -91.38656 | 36870 ft | 553 kts | 68° |
| 2026-05-09 00:00 | 36.96683 | -91.29604 | 36872 ft | 555 kts | 68° |
| 2026-05-09 00:00 | 36.99323 | -91.20522 | 36929 ft | 557 kts | 68° |
| 2026-05-09 00:01 | 37.01966 | -91.11387 | 36867 ft | 559 kts | 68° |
| 2026-05-09 00:01 | 37.04603 | -91.02229 | 36874 ft | 560 kts | 69° |
| 2026-05-09 00:02 | 37.07239 | -90.93051 | 36872 ft | 561 kts | 69° |
| 2026-05-09 00:02 | 37.09871 | -90.83855 | 36882 ft | 561 kts | 69° |
| 2026-05-09 00:03 | 37.12493 | -90.74663 | 36866 ft | 561 kts | 69° |
| 2026-05-09 00:03 | 37.15110 | -90.65459 | 36882 ft | 560 kts | 69° |
| 2026-05-09 00:04 | 37.17718 | -90.56253 | 36884 ft | 560 kts | 69° |
| 2026-05-09 00:04 | 37.20320 | -90.47039 | 36878 ft | 561 kts | 69° |
| 2026-05-09 00:05 | 37.22915 | -90.37816 | 36886 ft | 561 kts | 69° |
| 2026-05-09 00:05 | 37.25509 | -90.28566 | 36888 ft | 562 kts | 69° |
| 2026-05-09 00:06 | 37.28092 | -90.19321 | 36887 ft | 562 kts | 69° |
| 2026-05-09 00:06 | 37.30670 | -90.10066 | 36875 ft | 561 kts | 69° |
| 2026-05-09 00:07 | 37.33239 | -90.00809 | 36878 ft | 560 kts | 69° |
| 2026-05-09 00:07 | 37.35795 | -89.91565 | 36869 ft | 560 kts | 69° |
| 2026-05-09 00:08 | 37.38341 | -89.82326 | 36878 ft | 559 kts | 69° |
| 2026-05-09 00:08 | 37.40859 | -89.73156 | 36880 ft | 558 kts | 70° |
| 2026-05-09 00:09 | 37.43384 | -89.63931 | 36877 ft | 558 kts | 70° |
| 2026-05-09 00:09 | 37.45903 | -89.54692 | 36878 ft | 558 kts | 70° |
| 2026-05-09 00:10 | 37.48418 | -89.45441 | 36919 ft | 558 kts | 70° |
| 2026-05-09 00:10 | 37.50927 | -89.36174 | 36887 ft | 559 kts | 70° |
| 2026-05-09 00:11 | 37.53427 | -89.26906 | 36870 ft | 559 kts | 70° |
| 2026-05-09 00:11 | 37.55920 | -89.17632 | 36876 ft | 558 kts | 70° |
| 2026-05-09 00:12 | 37.58402 | -89.08367 | 36880 ft | 558 kts | 70° |
| 2026-05-09 00:12 | 37.60874 | -88.99108 | 36887 ft | 557 kts | 70° |
| 2026-05-09 00:13 | 37.63342 | -88.89828 | 36889 ft | 557 kts | 70° |
| 2026-05-09 00:13 | 37.65799 | -88.80557 | 36874 ft | 558 kts | 70° |
| 2026-05-09 00:14 | 37.67841 | -88.72827 | 36899 ft | 558 kts | 70° |
| 2026-05-09 00:14 | 37.70290 | -88.63522 | 36902 ft | 559 kts | 71° |
| 2026-05-09 00:15 | 37.72741 | -88.54180 | 36896 ft | 561 kts | 71° |
| 2026-05-09 00:15 | 37.75189 | -88.44810 | 36912 ft | 562 kts | 71° |
| 2026-05-09 00:16 | 37.77635 | -88.35416 | 36901 ft | 563 kts | 71° |
| 2026-05-09 00:16 | 37.80077 | -88.26001 | 36894 ft | 564 kts | 71° |
| 2026-05-09 00:17 | 37.82513 | -88.16575 | 36892 ft | 564 kts | 71° |
| 2026-05-09 00:17 | 37.84944 | -88.07129 | 36885 ft | 565 kts | 71° |
| 2026-05-09 00:18 | 37.87368 | -87.97681 | 36899 ft | 565 kts | 71° |
| 2026-05-09 00:18 | 37.89783 | -87.88226 | 36902 ft | 565 kts | 71° |
| 2026-05-09 00:19 | 37.92194 | -87.78758 | 36905 ft | 565 kts | 71° |
| 2026-05-09 00:19 | 37.95087 | -87.69528 | 36913 ft | 563 kts | 62° |
| 2026-05-09 00:20 | 37.98506 | -87.60601 | 36911 ft | 563 kts | 61° |
| 2026-05-09 00:20 | 38.01947 | -87.51691 | 36905 ft | 563 kts | 62° |
| 2026-05-09 00:21 | 38.05309 | -87.42732 | 36909 ft | 563 kts | 62° |
| 2026-05-09 00:21 | 38.08626 | -87.33733 | 36904 ft | 563 kts | 62° |
| 2026-05-09 00:22 | 38.11928 | -87.24726 | 36894 ft | 562 kts | 62° |
| 2026-05-09 00:22 | 38.15228 | -87.15720 | 36915 ft | 562 kts | 62° |
| 2026-05-09 00:23 | 38.18528 | -87.06699 | 36917 ft | 564 kts | 62° |
| 2026-05-09 00:23 | 38.21825 | -86.97662 | 36921 ft | 563 kts | 62° |
| 2026-05-09 00:24 | 38.25115 | -86.88612 | 36907 ft | 563 kts | 62° |
| 2026-05-09 00:24 | 38.28396 | -86.79562 | 36914 ft | 563 kts | 62° |
| 2026-05-09 00:25 | 38.31670 | -86.70504 | 36893 ft | 563 kts | 62° |
| 2026-05-09 00:25 | 38.34937 | -86.61435 | 36899 ft | 563 kts | 62° |
| 2026-05-09 00:26 | 38.38194 | -86.52369 | 36883 ft | 563 kts | 62° |
| 2026-05-09 00:26 | 38.41447 | -86.43287 | 36898 ft | 563 kts | 62° |
| 2026-05-09 00:27 | 38.44692 | -86.34197 | 36894 ft | 564 kts | 63° |
| 2026-05-09 00:27 | 38.47936 | -86.25085 | 36889 ft | 564 kts | 63° |
| 2026-05-09 00:28 | 38.51176 | -86.15953 | 36878 ft | 565 kts | 62° |
| 2026-05-09 00:28 | 38.54417 | -86.06793 | 36896 ft | 566 kts | 63° |
| 2026-05-09 00:29 | 38.57630 | -85.97681 | 36898 ft | 567 kts | 63° |
| 2026-05-09 00:29 | 38.60868 | -85.88472 | 36916 ft | 569 kts | 63° |
| 2026-05-09 00:30 | 38.64125 | -85.79177 | 36901 ft | 569 kts | 63° |
| 2026-05-09 00:30 | 38.67326 | -85.70013 | 36915 ft | 568 kts | 63° |
| 2026-05-09 00:31 | 38.70551 | -85.60753 | 36460 ft | 572 kts | 63° |
| 2026-05-09 00:31 | 38.72165 | -85.56111 | 35875 ft | 570 kts | 63° |
| 2026-05-09 00:31 | 38.73776 | -85.51465 | 35238 ft | 570 kts | 63° |
| 2026-05-09 00:31 | 38.75379 | -85.46835 | 34569 ft | 570 kts | 63° |
| 2026-05-09 00:32 | 38.76986 | -85.42187 | 33842 ft | 570 kts | 63° |
| 2026-05-09 00:32 | 38.78588 | -85.37544 | 33126 ft | 567 kts | 63° |
| 2026-05-09 00:32 | 38.80163 | -85.32968 | 32428 ft | 556 kts | 63° |
| 2026-05-09 00:32 | 38.81716 | -85.28452 | 31539 ft | 550 kts | 63° |
| 2026-05-09 00:33 | 38.83249 | -85.23986 | 30949 ft | 545 kts | 64° |
| 2026-05-09 00:33 | 38.84768 | -85.19558 | 30435 ft | 540 kts | 64° |
| 2026-05-09 00:33 | 38.86274 | -85.15164 | 29905 ft | 535 kts | 64° |
| 2026-05-09 00:33 | 38.87759 | -85.10826 | 29296 ft | 529 kts | 64° |
| 2026-05-09 00:34 | 38.89230 | -85.06516 | 28757 ft | 523 kts | 64° |
| 2026-05-09 00:34 | 38.90697 | -85.02215 | 28219 ft | 516 kts | 64° |
| 2026-05-09 00:34 | 38.92108 | -84.98070 | 27700 ft | 511 kts | 64° |
| 2026-05-09 00:34 | 38.93519 | -84.93921 | 27197 ft | 504 kts | 64° |
| 2026-05-09 00:35 | 38.94916 | -84.89808 | 26673 ft | 499 kts | 63° |
| 2026-05-09 00:35 | 38.96294 | -84.85743 | 26146 ft | 494 kts | 64° |
| 2026-05-09 00:35 | 38.97659 | -84.81712 | 25629 ft | 490 kts | 64° |
| 2026-05-09 00:35 | 38.99011 | -84.77717 | 25124 ft | 485 kts | 64° |
| 2026-05-09 00:36 | 39.00345 | -84.73766 | 24612 ft | 481 kts | 64° |
| 2026-05-09 00:36 | 39.01673 | -84.69832 | 24151 ft | 476 kts | 63° |
| 2026-05-09 00:36 | 39.03190 | -84.66128 | 23964 ft | 459 kts | 52° |
| 2026-05-09 00:36 | 39.05008 | -84.62823 | 23935 ft | 453 kts | 49° |
| 2026-05-09 00:37 | 39.06877 | -84.59637 | 23898 ft | 439 kts | 48° |
| 2026-05-09 00:37 | 39.08693 | -84.56565 | 23889 ft | 424 kts | 48° |
| 2026-05-09 00:37 | 39.10435 | -84.53581 | 23889 ft | 410 kts | 48° |
| 2026-05-09 00:37 | 39.12103 | -84.50679 | 23884 ft | 396 kts | 48° |
| 2026-05-09 00:38 | 39.13704 | -84.47857 | 23890 ft | 383 kts | 49° |
| 2026-05-09 00:38 | 39.15243 | -84.45124 | 23882 ft | 371 kts | 48° |
| 2026-05-09 00:38 | 39.16732 | -84.42471 | 23891 ft | 362 kts | 48° |
| 2026-05-09 00:38 | 39.18228 | -84.39813 | 23923 ft | 374 kts | 48° |
| 2026-05-09 00:39 | 39.19795 | -84.37034 | 23925 ft | 392 kts | 49° |
| 2026-05-09 00:39 | 39.21430 | -84.34125 | 23917 ft | 410 kts | 49° |
| 2026-05-09 00:39 | 39.23133 | -84.31082 | 23927 ft | 427 kts | 49° |
| 2026-05-09 00:39 | 39.24898 | -84.27914 | 23916 ft | 443 kts | 49° |
| 2026-05-09 00:40 | 39.26715 | -84.24646 | 23777 ft | 450 kts | 50° |
| 2026-05-09 00:40 | 39.28536 | -84.21366 | 23271 ft | 450 kts | 50° |
| 2026-05-09 00:40 | 39.30299 | -84.18012 | 22601 ft | 453 kts | 56° |
| 2026-05-09 00:41 | 39.33104 | -84.10736 | 21532 ft | 450 kts | 62° |
| 2026-05-09 00:41 | 39.34406 | -84.07087 | 21014 ft | 446 kts | 61° |
| 2026-05-09 00:41 | 39.35741 | -84.03449 | 20266 ft | 449 kts | 60° |
| 2026-05-09 00:41 | 39.37109 | -83.99839 | 19674 ft | 447 kts | 59° |
| 2026-05-09 00:42 | 39.38484 | -83.96256 | 19233 ft | 442 kts | 59° |
| 2026-05-09 00:42 | 39.39843 | -83.92718 | 18796 ft | 436 kts | 59° |
| 2026-05-09 00:42 | 39.41183 | -83.89221 | 18319 ft | 433 kts | 59° |
| 2026-05-09 00:42 | 39.42512 | -83.85743 | 17783 ft | 430 kts | 60° |
| 2026-05-09 00:43 | 39.43831 | -83.82285 | 17249 ft | 426 kts | 60° |
| 2026-05-09 00:43 | 39.45135 | -83.78861 | 16739 ft | 422 kts | 59° |
| 2026-05-09 00:43 | 39.46426 | -83.75468 | 16232 ft | 419 kts | 59° |
| 2026-05-09 00:43 | 39.47705 | -83.72106 | 15733 ft | 415 kts | 59° |
| 2026-05-09 00:44 | 39.48972 | -83.68770 | 15341 ft | 410 kts | 59° |
| 2026-05-09 00:44 | 39.50221 | -83.65478 | 15042 ft | 405 kts | 59° |
| 2026-05-09 00:44 | 39.51452 | -83.62227 | 14706 ft | 401 kts | 59° |
| 2026-05-09 00:44 | 39.52684 | -83.58975 | 14383 ft | 403 kts | 59° |
| 2026-05-09 00:45 | 39.53922 | -83.55703 | 14051 ft | 404 kts | 59° |
| 2026-05-09 00:45 | 39.55153 | -83.52442 | 13702 ft | 400 kts | 59° |
| 2026-05-09 00:45 | 39.56364 | -83.49232 | 13340 ft | 394 kts | 59° |
| 2026-05-09 00:45 | 39.57555 | -83.46068 | 12986 ft | 388 kts | 59° |
| 2026-05-09 00:46 | 39.58768 | -83.42962 | 12656 ft | 383 kts | 54° |
| 2026-05-09 00:46 | 39.60479 | -83.40429 | 12362 ft | 368 kts | 33° |
| 2026-05-09 00:46 | 39.62483 | -83.38416 | 12098 ft | 364 kts | 31° |
| 2026-05-09 00:46 | 39.64498 | -83.36436 | 11781 ft | 363 kts | 31° |
| 2026-05-09 00:47 | 39.66498 | -83.34451 | 11473 ft | 362 kts | 32° |
| 2026-05-09 00:47 | 39.68474 | -83.32459 | 11169 ft | 356 kts | 32° |
| 2026-05-09 00:47 | 39.70410 | -83.30493 | 10874 ft | 351 kts | 33° |
| 2026-05-09 00:47 | 39.72287 | -83.28492 | 10576 ft | 349 kts | 41° |
| 2026-05-09 00:48 | 39.73732 | -83.25977 | 10293 ft | 343 kts | 54° |
| 2026-05-09 00:48 | 39.74974 | -83.23396 | 10017 ft | 331 kts | 54° |
| 2026-05-09 00:48 | 39.76183 | -83.20940 | 9928 ft | 314 kts | 53° |
| 2026-05-09 00:48 | 39.77374 | -83.18575 | 9501 ft | 311 kts | 53° |
| 2026-05-09 00:49 | 39.78562 | -83.16238 | 9240 ft | 308 kts | 53° |
| 2026-05-09 00:49 | 39.79746 | -83.13937 | 8971 ft | 305 kts | 54° |
| 2026-05-09 00:49 | 39.80915 | -83.11693 | 8717 ft | 303 kts | 54° |
| 2026-05-09 00:49 | 39.82091 | -83.09436 | 8463 ft | 300 kts | 54° |
| 2026-05-09 00:50 | 39.83267 | -83.07170 | 8213 ft | 298 kts | 55° |
| 2026-05-09 00:50 | 39.84421 | -83.04939 | 7971 ft | 297 kts | 55° |
| 2026-05-09 00:50 | 39.85578 | -83.02700 | 7720 ft | 299 kts | 56° |
| 2026-05-09 00:50 | 39.86738 | -83.00449 | 7482 ft | 300 kts | 56° |
| 2026-05-09 00:51 | 39.87900 | -82.98195 | 7225 ft | 299 kts | 56° |
| 2026-05-09 00:51 | 39.89039 | -82.95986 | 6983 ft | 297 kts | 56° |
| 2026-05-09 00:51 | 39.90158 | -82.93739 | 6726 ft | 295 kts | 63° |
| 2026-05-09 00:51 | 39.90649 | -82.91200 | 6470 ft | 288 kts | 92° |
| 2026-05-09 00:52 | 39.90573 | -82.88645 | 6248 ft | 277 kts | 98° |
| 2026-05-09 00:52 | 39.90429 | -82.86224 | 6120 ft | 258 kts | 99° |
| 2026-05-09 00:52 | 39.90238 | -82.83935 | 6017 ft | 254 kts | 102° |
| 2026-05-09 00:52 | 39.90008 | -82.81666 | 5991 ft | 251 kts | 103° |
| 2026-05-09 00:53 | 39.89757 | -82.79446 | 5931 ft | 246 kts | 103° |
| 2026-05-09 00:53 | 39.89511 | -82.77266 | 5541 ft | 243 kts | 102° |
| 2026-05-09 00:53 | 39.89296 | -82.75075 | 5081 ft | 241 kts | 100° |
| 2026-05-09 00:53 | 39.89111 | -82.72959 | 4725 ft | 233 kts | 100° |
| 2026-05-09 00:54 | 39.88920 | -82.70868 | 4291 ft | 233 kts | 101° |
| 2026-05-09 00:54 | 39.88773 | -82.68785 | 4060 ft | 232 kts | 89° |
| 2026-05-09 00:54 | 39.89287 | -82.66821 | 4012 ft | 231 kts | 53° |
| 2026-05-09 00:54 | 39.90520 | -82.65547 | 3986 ft | 226 kts | 17° |
| 2026-05-09 00:55 | 39.92021 | -82.65344 | 3767 ft | 214 kts | 342° |
| 2026-05-09 00:55 | 39.93310 | -82.66156 | 3462 ft | 202 kts | 315° |
| 2026-05-09 00:55 | 39.94192 | -82.67540 | 3218 ft | 198 kts | 295° |
| 2026-05-09 00:55 | 39.94875 | -82.69113 | 3065 ft | 201 kts | 296° |
| 2026-05-09 00:56 | 39.95551 | -82.70647 | 2993 ft | 188 kts | 296° |
| 2026-05-09 00:56 | 39.96178 | -82.72065 | 2964 ft | 174 kts | 296° |
| 2026-05-09 00:56 | 39.96780 | -82.73433 | 2704 ft | 173 kts | 296° |
| 2026-05-09 00:56 | 39.97373 | -82.74779 | 2455 ft | 168 kts | 296° |
| 2026-05-09 00:57 | 39.97959 | -82.76110 | 2380 ft | 167 kts | 296° |
| 2026-05-09 00:57 | 39.98500 | -82.77410 | 2271 ft | 159 kts | 286° |
| 2026-05-09 00:57 | 39.98658 | -82.78780 | 2115 ft | 150 kts | 274° |
| 2026-05-09 00:57 | 39.98754 | -82.80102 | 1924 ft | 144 kts | 273° |
| 2026-05-09 00:58 | 39.98806 | -82.80960 | 1786 ft | 143 kts | 273° |
| 2026-05-09 00:58 | 39.98879 | -82.82266 | 1608 ft | 146 kts | 273° |
| 2026-05-09 00:58 | 39.98954 | -82.83605 | 1417 ft | 150 kts | 274° |
| 2026-05-09 00:58 | 39.99033 | -82.84982 | 1202 ft | 154 kts | 274° |
| 2026-05-09 00:59 | 39.99109 | -82.86370 | 1001 ft | 153 kts | 274° |
| 2026-05-09 00:59 | 39.99185 | -82.87733 | 827 ft | 145 kts | 271° |
| 2026-05-09 00:59 | 39.99247 | -82.88835 | 824 ft | 87 kts | 274° |
| 2026-05-09 00:59 | 39.99283 | -82.89374 | 821 ft | 44 kts | 281° |
| 2026-05-09 01:00 | 39.99377 | -82.89635 | 823 ft | 24 kts | 301° |
| 2026-05-09 01:00 | 39.99431 | -82.89740 | 824 ft | 7 kts | 306° |
| 2026-05-09 01:00 | 39.99442 | -82.89759 | 820 ft | 2 kts | 305° |
| 2026-05-09 01:00 | 39.99450 | -82.89774 | 822 ft | 2 kts | 305° |
| 2026-05-09 01:01 | 39.99457 | -82.89788 | 824 ft | 2 kts | 305° |
| 2026-05-09 01:01 | 39.99465 | -82.89803 | 824 ft | 3 kts | 301° |
| 2026-05-09 01:01 | 39.99472 | -82.89819 | 821 ft | 2 kts | 298° |
| 2026-05-09 01:01 | 39.99480 | -82.89855 | 824 ft | 8 kts | 279° |
| 2026-05-09 01:02 | 39.99523 | -82.89916 | 824 ft | 11 kts | 352° |
| 2026-05-09 01:02 | 39.99590 | -82.89892 | 821 ft | 10 kts | 59° |
| 2026-05-09 01:02 | 39.99590 | -82.89773 | 824 ft | 17 kts | 94° |
| 2026-05-09 01:02 | 39.99582 | -82.89614 | 824 ft | 17 kts | 94° |
| 2026-05-09 01:03 | 39.99572 | -82.89459 | 824 ft | 17 kts | 94° |
| 2026-05-09 01:03 | 39.99564 | -82.89310 | 824 ft | 16 kts | 94° |
| 2026-05-09 01:03 | 39.99555 | -82.89167 | 824 ft | 16 kts | 94° |
| 2026-05-09 01:03 | 39.99549 | -82.89025 | 824 ft | 16 kts | 94° |
| 2026-05-09 01:04 | 39.99540 | -82.88881 | 822 ft | 16 kts | 94° |
| 2026-05-09 01:04 | 39.99532 | -82.88743 | 824 ft | 15 kts | 94° |
| 2026-05-09 01:04 | 39.99525 | -82.88610 | 821 ft | 14 kts | 94° |
| 2026-05-09 01:04 | 39.99517 | -82.88484 | 824 ft | 14 kts | 95° |
| 2026-05-09 01:05 | 39.99511 | -82.88363 | 822 ft | 13 kts | 91° |
| 2026-05-09 01:05 | 39.99579 | -82.88313 | 824 ft | 12 kts | 5° |
| 2026-05-09 01:05 | 39.99626 | -82.88179 | 824 ft | 7 kts | 37° |
| 2026-05-09 01:06 | 39.99677 | -82.88166 | 824 ft | 7 kts | 8° |
| 2026-05-09 01:06 | 39.99719 | -82.88159 | 824 ft | 5 kts | 7° |
| 2026-05-09 01:06 | 39.99740 | -82.88155 | 824 ft | 2 kts | 7° |
| 2026-05-09 01:06 | 39.99742 | -82.88155 | 824 ft | 0 kts | 7° |